Time;durP1;ratioP1;P1;durP2;ratioP2;P2;SDS_P1;SDS_P2;PMS_P1;PMS_P2;Temp;Humidity;BMP_temperature;BMP_pressure;BME280_temperature;BME280_humidity;BME280_pressure;Samples;Min_cycle;Max_cycle;Signal;HPM_P1;HPM_P2
2021/01/31 00:01:07;;;;;;;25.67;16.27;;;;;;;;;;5034454;28;20051;-81
2021/01/31 00:03:33;;;;;;;17.83;9.23;;;;;;;;;;5052158;28;20013;-82
2021/01/31 00:06:04;;;;;;;25.70;15.07;;;;;;;;;;5034419;28;20021;-82
2021/01/31 00:08:30;;;;;;;24.80;12.50;;;;;;;;;;5052278;28;20028;-82
2021/01/31 00:10:57;;;;;;;24.92;14.30;;;;;;;;;;5034324;28;20473;-82
2021/01/31 00:13:24;;;;;;;24.02;13.07;;;;;;;;;;5051980;28;20070;-82
2021/01/31 00:15:51;;;;;;;18.05;7.63;;;;;;;;;;5033804;28;20033;-82
2021/01/31 00:18:18;;;;;;;24.30;11.90;;;;;;;;;;5034120;28;20017;-82
2021/01/31 00:20:49;;;;;;;17.13;8.32;;;;;;;;;;5034048;28;20103;-82
2021/01/31 00:23:15;;;;;;;13.27;6.07;;;;;;;;;;5034209;28;20028;-82
2021/01/31 00:25:42;;;;;;;29.92;16.70;;;;;;;;;;5051586;28;20039;-83
2021/01/31 00:28:08;;;;;;;31.75;14.90;;;;;;;;;;5052178;28;20024;-83
2021/01/31 00:30:39;;;;;;;23.58;11.07;;;;;;;;;;5034053;28;20108;-83
2021/01/31 00:33:06;;;;;;;14.20;6.88;;;;;;;;;;5052079;28;20060;-82
2021/01/31 00:35:34;;;;;;;37.28;17.23;;;;;;;;;;5033617;28;20040;-82
2021/01/31 00:38:00;;;;;;;27.80;13.77;;;;;;;;;;5033966;28;20485;-83
2021/01/31 00:40:26;;;;;;;29.35;15.90;;;;;;;;;;5033879;28;20028;-82
2021/01/31 00:42:52;;;;;;;30.00;15.85;;;;;;;;;;5055092;28;20009;-82
2021/01/31 00:45:22;;;;;;;27.13;12.90;;;;;;;;;;5038062;28;20028;-83
2021/01/31 00:47:48;;;;;;;24.88;13.30;;;;;;;;;;5038116;28;20038;-83
2021/01/31 00:50:16;;;;;;;30.45;16.15;;;;;;;;;;5038195;28;20361;-83
2021/01/31 00:52:42;;;;;;;27.33;15.82;;;;;;;;;;5055927;28;20114;-83
2021/01/31 00:55:08;;;;;;;26.23;10.70;;;;;;;;;;5055644;28;20028;-82
2021/01/31 00:57:34;;;;;;;30.30;16.98;;;;;;;;;;5037734;28;20104;-82
2021/01/31 01:00:00;;;;;;;28.17;15.68;;;;;;;;;;5037866;28;20021;-82
2021/01/31 01:02:26;;;;;;;24.90;14.35;;;;;;;;;;5037628;28;20437;-82
2021/01/31 01:04:52;;;;;;;19.90;10.23;;;;;;;;;;5055630;28;20123;-83
2021/01/31 01:07:18;;;;;;;27.05;14.52;;;;;;;;;;5037778;28;20013;-82
2021/01/31 01:09:47;;;;;;;27.38;15.63;;;;;;;;;;5055601;28;20021;-83
2021/01/31 01:12:14;;;;;;;26.50;15.38;;;;;;;;;;5038056;28;20025;-83
2021/01/31 01:14:40;;;;;;;26.13;15.75;;;;;;;;;;5037562;28;20025;-82
2021/01/31 01:17:06;;;;;;;26.25;15.35;;;;;;;;;;5055285;28;20139;-82
2021/01/31 01:19:32;;;;;;;27.42;10.43;;;;;;;;;;5055301;28;20049;-82
2021/01/31 01:21:58;;;;;;;30.65;14.10;;;;;;;;;;5037528;28;20017;-81
2021/01/31 01:24:24;;;;;;;28.38;13.93;;;;;;;;;;5055195;28;20009;-81
2021/01/31 01:26:51;;;;;;;28.05;14.93;;;;;;;;;;5037482;28;20017;-82
2021/01/31 01:29:17;;;;;;;28.42;15.68;;;;;;;;;;5037584;28;20027;-82
2021/01/31 01:31:43;;;;;;;22.30;12.20;;;;;;;;;;5037195;28;20025;-81
2021/01/31 01:34:09;;;;;;;23.70;13.68;;;;;;;;;;5037380;28;20021;-81
2021/01/31 01:36:35;;;;;;;12.80;5.18;;;;;;;;;;5036834;28;20087;-81
2021/01/31 01:39:01;;;;;;;20.73;10.25;;;;;;;;;;5037231;28;20098;-82
2021/01/31 01:41:27;;;;;;;29.40;16.25;;;;;;;;;;5036965;28;20045;-83
2021/01/31 01:43:54;;;;;;;29.15;15.73;;;;;;;;;;5037067;28;20023;-82
2021/01/31 01:46:19;;;;;;;22.25;10.85;;;;;;;;;;5037038;28;20028;-82
2021/01/31 01:48:47;;;;;;;17.65;8.60;;;;;;;;;;5036733;28;20032;-82
2021/01/31 01:51:15;;;;;;;29.73;14.60;;;;;;;;;;5037000;28;20048;-82
2021/01/31 01:53:41;;;;;;;22.02;10.32;;;;;;;;;;5036263;28;20017;-82
2021/01/31 01:56:10;;;;;;;18.63;8.50;;;;;;;;;;5036844;28;20064;-82
2021/01/31 01:58:36;;;;;;;24.42;12.05;;;;;;;;;;5036523;28;20469;-82
2021/01/31 02:01:02;;;;;;;19.63;8.80;;;;;;;;;;5054617;28;20013;-82
2021/01/31 02:03:34;;;;;;;16.23;7.70;;;;;;;;;;5036538;28;20048;-82
2021/01/31 02:06:19;;;;;;;17.38;8.98;;;;;;;;;;5036761;28;20029;-82
2021/01/31 02:08:46;;;;;;;28.55;14.70;;;;;;;;;;5054451;28;20041;-82
2021/01/31 02:11:15;;;;;;;17.25;9.02;;;;;;;;;;5036676;28;20098;-84
2021/01/31 02:13:43;;;;;;;27.48;14.52;;;;;;;;;;5036320;28;20025;-83
2021/01/31 02:16:18;;;;;;;30.52;15.15;;;;;;;;;;5036540;28;20063;-82
2021/01/31 02:18:53;;;;;;;20.02;9.25;;;;;;;;;;5036142;28;20070;-83
2021/01/31 02:21:51;;;;;;;30.42;15.60;;;;;;;;;;5036648;28;20048;-83
2021/01/31 02:24:35;;;;;;;22.80;11.05;;;;;;;;;;5036527;28;20352;-83
2021/01/31 02:27:16;;;;;;;33.63;14.68;;;;;;;;;;5054126;28;20492;-82
2021/01/31 02:30:01;;;;;;;24.45;11.43;;;;;;;;;;5036445;28;20111;-81
2021/01/31 02:32:27;;;;;;;24.42;12.20;;;;;;;;;;5054447;28;20021;-82
2021/01/31 02:35:01;;;;;;;21.52;10.95;;;;;;;;;;5036042;28;20032;-81
2021/01/31 02:37:36;;;;;;;10.82;4.55;;;;;;;;;;5035913;28;20020;-82
2021/01/31 02:40:07;;;;;;;33.60;18.05;;;;;;;;;;5036199;28;20017;-82
2021/01/31 02:42:37;;;;;;;14.02;6.30;;;;;;;;;;5035643;28;20021;-82
2021/01/31 02:45:06;;;;;;;25.70;11.20;;;;;;;;;;5035643;28;20028;-80
2021/01/31 02:47:33;;;;;;;28.50;15.73;;;;;;;;;;5035582;28;20028;-81
2021/01/31 02:50:11;;;;;;;28.30;14.18;;;;;;;;;;5035704;28;20023;-81
2021/01/31 02:52:41;;;;;;;27.23;14.18;;;;;;;;;;5053730;28;20025;-81
2021/01/31 02:55:10;;;;;;;25.70;13.75;;;;;;;;;;5035612;28;20464;-81
2021/01/31 02:57:47;;;;;;;14.38;5.78;;;;;;;;;;5035538;28;20063;-81
2021/01/31 03:00:21;;;;;;;22.42;12.43;;;;;;;;;;5035693;28;20021;-80
2021/01/31 03:02:51;;;;;;;30.77;16.58;;;;;;;;;;5053319;28;20044;-81
2021/01/31 03:05:18;;;;;;;23.85;11.65;;;;;;;;;;5034678;28;20028;-80
2021/01/31 03:07:57;;;;;;;26.67;12.93;;;;;;;;;;5052883;28;20075;-81
2021/01/31 03:10:26;;;;;;;27.55;14.27;;;;;;;;;;5035472;28;20047;-81
2021/01/31 03:12:58;;;;;;;26.00;14.45;;;;;;;;;;5035191;28;20020;-81
2021/01/31 03:15:27;;;;;;;26.88;15.50;;;;;;;;;;5035328;28;20495;-82
2021/01/31 03:18:01;;;;;;;24.13;10.48;;;;;;;;;;5034863;28;20024;-81
2021/01/31 03:20:29;;;;;;;26.67;11.85;;;;;;;;;;5035206;28;20016;-82
2021/01/31 03:23:04;;;;;;;28.85;15.50;;;;;;;;;;5034751;28;20025;-82
2021/01/31 03:25:41;;;;;;;25.95;13.63;;;;;;;;;;5035119;28;20056;-82
2021/01/31 03:28:07;;;;;;;21.45;11.45;;;;;;;;;;5035089;28;20514;-81
2021/01/31 03:30:33;;;;;;;11.43;4.82;;;;;;;;;;5034979;28;20102;-81
2021/01/31 03:33:02;;;;;;;11.98;6.07;;;;;;;;;;5035135;28;20009;-81
2021/01/31 03:35:30;;;;;;;25.83;14.25;;;;;;;;;;5034996;28;20088;-81
2021/01/31 03:38:02;;;;;;;19.63;9.65;;;;;;;;;;5034584;28;20044;-80
2021/01/31 03:40:29;;;;;;;24.92;12.48;;;;;;;;;;5034956;28;20017;-82
2021/01/31 03:42:55;;;;;;;26.55;14.75;;;;;;;;;;5034687;28;20115;-81
2021/01/31 03:45:28;;;;;;;28.63;13.13;;;;;;;;;;5034921;28;20028;-81
2021/01/31 03:47:57;;;;;;;24.20;14.05;;;;;;;;;;5034546;28;20017;-81
2021/01/31 03:50:23;;;;;;;27.95;15.90;;;;;;;;;;5034613;28;20163;-80
2021/01/31 03:52:49;;;;;;;22.30;10.90;;;;;;;;;;5034439;28;20044;-80
2021/01/31 03:55:15;;;;;;;25.05;12.23;;;;;;;;;;5034595;28;20025;-80
2021/01/31 03:57:45;;;;;;;26.40;13.73;;;;;;;;;;5034402;28;20017;-80
2021/01/31 04:00:20;;;;;;;20.83;9.90;;;;;;;;;;5034630;28;20020;-80
2021/01/31 04:02:51;;;;;;;21.88;8.95;;;;;;;;;;5034453;28;20024;-80
2021/01/31 04:05:18;;;;;;;29.92;14.57;;;;;;;;;;5034383;28;20480;-80
2021/01/31 04:07:45;;;;;;;21.73;11.10;;;;;;;;;;5051808;28;20361;-80
2021/01/31 04:10:11;;;;;;;28.05;14.32;;;;;;;;;;5034383;28;20070;-79
2021/01/31 04:12:40;;;;;;;27.33;15.10;;;;;;;;;;5051961;28;20021;-79
2021/01/31 04:15:09;;;;;;;24.13;12.60;;;;;;;;;;5034051;28;20036;-79
2021/01/31 04:17:40;;;;;;;26.65;13.45;;;;;;;;;;5034021;28;20028;-79
2021/01/31 04:20:06;;;;;;;26.52;14.20;;;;;;;;;;5034324;28;20078;-78
2021/01/31 04:22:32;;;;;;;23.38;11.57;;;;;;;;;;5033926;28;20116;-79
2021/01/31 04:24:58;;;;;;;23.00;11.90;;;;;;;;;;5034041;28;20063;-78
2021/01/31 04:27:24;;;;;;;23.48;10.20;;;;;;;;;;5034178;28;20052;-79
2021/01/31 04:29:50;;;;;;;22.83;9.80;;;;;;;;;;5033954;28;20457;-79
2021/01/31 04:32:16;;;;;;;32.85;14.88;;;;;;;;;;5034307;28;20028;-79
2021/01/31 04:34:42;;;;;;;30.90;16.42;;;;;;;;;;5033907;28;20066;-79
2021/01/31 04:37:08;;;;;;;22.20;11.38;;;;;;;;;;5051856;28;20465;-79
2021/01/31 04:39:34;;;;;;;19.92;10.57;;;;;;;;;;5051752;28;20111;-79
2021/01/31 04:42:02;;;;;;;20.45;10.63;;;;;;;;;;5051818;28;20025;-79
2021/01/31 04:44:28;;;;;;;26.55;13.68;;;;;;;;;;5034032;28;20027;-79
2021/01/31 04:47:02;;;;;;;27.83;15.52;;;;;;;;;;5033924;28;20025;-79
2021/01/31 04:49:31;;;;;;;24.02;14.35;;;;;;;;;;5033987;28;20105;-79
2021/01/31 04:52:03;;;;;;;27.95;15.40;;;;;;;;;;5051655;28;20373;-79
2021/01/31 04:54:44;;;;;;;25.63;13.30;;;;;;;;;;5052269;28;20013;-79
2021/01/31 04:57:13;;;;;;;25.02;12.23;;;;;;;;;;5033949;28;20028;-79
2021/01/31 04:59:41;;;;;;;23.27;12.90;;;;;;;;;;5033712;28;20018;-78
2021/01/31 05:02:20;;;;;;;24.73;13.00;;;;;;;;;;5034001;28;20087;-78
2021/01/31 05:04:53;;;;;;;27.10;12.82;;;;;;;;;;5033679;28;20023;-78
2021/01/31 05:07:21;;;;;;;22.33;12.05;;;;;;;;;;5033994;28;20017;-78
2021/01/31 05:09:47;;;;;;;26.13;13.13;;;;;;;;;;5033909;28;20025;-78
2021/01/31 05:12:13;;;;;;;23.13;12.38;;;;;;;;;;5033896;28;20339;-79
2021/01/31 05:14:45;;;;;;;25.73;14.05;;;;;;;;;;5033447;28;20127;-78
2021/01/31 05:17:13;;;;;;;25.90;14.23;;;;;;;;;;5051992;28;20025;-78
2021/01/31 05:19:39;;;;;;;23.67;13.13;;;;;;;;;;5033574;28;20016;-78
2021/01/31 05:22:05;;;;;;;20.88;11.25;;;;;;;;;;5033511;28;20028;-78
2021/01/31 05:24:32;;;;;;;22.73;12.02;;;;;;;;;;5033697;28;20025;-78
2021/01/31 05:26:59;;;;;;;20.50;10.05;;;;;;;;;;5033480;28;20071;-78
2021/01/31 05:29:28;;;;;;;22.42;13.32;;;;;;;;;;5054774;28;20075;-78
2021/01/31 05:32:11;;;;;;;26.90;12.88;;;;;;;;;;5037209;28;20017;-78
2021/01/31 05:34:37;;;;;;;24.60;13.30;;;;;;;;;;5037222;28;20474;-79
2021/01/31 05:37:05;;;;;;;22.95;12.90;;;;;;;;;;5037107;28;20389;-79
2021/01/31 05:39:36;;;;;;;23.63;12.35;;;;;;;;;;5037000;28;20048;-78
2021/01/31 05:42:05;;;;;;;25.30;13.55;;;;;;;;;;5036777;28;20029;-78
2021/01/31 05:44:31;;;;;;;25.52;14.32;;;;;;;;;;5036767;28;20025;-78
2021/01/31 05:46:59;;;;;;;26.40;13.35;;;;;;;;;;5036397;28;20075;-78
2021/01/31 05:49:33;;;;;;;24.02;13.70;;;;;;;;;;5054853;28;20036;-78
2021/01/31 05:51:59;;;;;;;26.65;14.63;;;;;;;;;;5054897;28;20052;-78
2021/01/31 05:54:39;;;;;;;26.30;14.40;;;;;;;;;;5054779;28;20013;-78
2021/01/31 05:57:21;;;;;;;27.90;15.13;;;;;;;;;;5036641;28;20489;-78
2021/01/31 05:59:47;;;;;;;24.67;12.38;;;;;;;;;;5054271;28;20016;-78
2021/01/31 06:02:20;;;;;;;25.73;12.95;;;;;;;;;;5036788;28;20021;-79
2021/01/31 06:04:46;;;;;;;26.60;13.85;;;;;;;;;;5036323;28;20049;-77
2021/01/31 06:07:13;;;;;;;24.83;13.25;;;;;;;;;;5036630;28;20048;-78
2021/01/31 06:09:46;;;;;;;25.40;13.18;;;;;;;;;;5054790;28;20013;-78
2021/01/31 06:12:24;;;;;;;27.27;15.07;;;;;;;;;;5054480;28;20029;-78
2021/01/31 06:15:08;;;;;;;23.98;12.63;;;;;;;;;;5036087;28;20071;-78
2021/01/31 06:17:34;;;;;;;25.80;13.98;;;;;;;;;;5036400;28;20070;-77
2021/01/31 06:20:02;;;;;;;27.50;14.95;;;;;;;;;;5036095;28;20013;-78
2021/01/31 06:22:38;;;;;;;27.88;14.32;;;;;;;;;;5054432;28;20043;-77
2021/01/31 06:25:05;;;;;;;24.80;12.50;;;;;;;;;;5036021;28;20479;-77
2021/01/31 06:27:32;;;;;;;27.13;12.93;;;;;;;;;;5054208;28;20021;-78
2021/01/31 06:30:07;;;;;;;28.25;14.52;;;;;;;;;;5053915;28;20075;-78
2021/01/31 06:32:34;;;;;;;25.88;14.48;;;;;;;;;;5036280;28;20477;-78
2021/01/31 06:35:02;;;;;;;24.50;13.63;;;;;;;;;;5053849;28;20024;-77
2021/01/31 06:37:37;;;;;;;26.17;13.77;;;;;;;;;;5035825;28;20490;-79
2021/01/31 06:40:08;;;;;;;27.55;13.43;;;;;;;;;;5035835;28;20640;-78
2021/01/31 06:42:50;;;;;;;25.83;13.60;;;;;;;;;;5036001;28;20501;-77
2021/01/31 06:45:35;;;;;;;25.30;12.13;;;;;;;;;;5036054;28;20067;-79
2021/01/31 06:48:02;;;;;;;24.65;13.43;;;;;;;;;;5035742;28;20066;-78
2021/01/31 06:50:46;;;;;;;26.23;14.30;;;;;;;;;;5035809;28;20334;-77
2021/01/31 06:53:27;;;;;;;23.13;12.98;;;;;;;;;;5035726;28;20609;-76
2021/01/31 06:56:02;;;;;;;26.35;14.20;;;;;;;;;;5053409;28;20071;-77
2021/01/31 06:58:34;;;;;;;23.08;11.02;;;;;;;;;;5053985;28;20060;-77
2021/01/31 07:01:00;;;;;;;25.63;12.57;;;;;;;;;;5035364;28;20449;-77
2021/01/31 07:03:34;;;;;;;26.33;13.93;;;;;;;;;;5035549;28;20025;-77
2021/01/31 07:06:25;;;;;;;26.05;13.85;;;;;;;;;;5035462;28;20025;-78
2021/01/31 07:08:51;;;;;;;25.33;12.73;;;;;;;;;;5053032;28;20549;-77
2021/01/31 07:11:17;;;;;;;27.13;13.88;;;;;;;;;;5053183;28;20485;-78
2021/01/31 07:13:56;;;;;;;28.55;13.75;;;;;;;;;;5035580;28;20044;-77
2021/01/31 07:16:28;;;;;;;25.13;12.15;;;;;;;;;;5035302;28;20083;-77
2021/01/31 07:19:13;;;;;;;21.35;12.40;;;;;;;;;;5053080;28;20062;-78
2021/01/31 07:21:48;;;;;;;27.38;13.63;;;;;;;;;;5035311;28;20457;-77
2021/01/31 07:24:17;;;;;;;28.98;15.27;;;;;;;;;;5035258;28;20090;-77
2021/01/31 07:26:54;;;;;;;25.33;12.88;;;;;;;;;;5053016;28;20043;-78
2021/01/31 07:29:24;;;;;;;25.27;13.50;;;;;;;;;;5035140;28;20024;-77
2021/01/31 07:31:51;;;;;;;28.30;15.00;;;;;;;;;;5052844;28;20020;-77
2021/01/31 07:34:33;;;;;;;26.77;13.90;;;;;;;;;;5035137;28;20511;-78
2021/01/31 07:37:11;;;;;;;26.92;13.43;;;;;;;;;;5034736;28;20539;-77
2021/01/31 07:40:02;;;;;;;27.58;15.18;;;;;;;;;;5035191;28;20124;-77
2021/01/31 07:42:29;;;;;;;25.63;12.82;;;;;;;;;;5035094;28;20060;-77
2021/01/31 07:44:58;;;;;;;28.58;15.50;;;;;;;;;;5034591;28;20017;-78
2021/01/31 07:47:24;;;;;;;25.08;13.45;;;;;;;;;;5034734;28;20108;-78
2021/01/31 07:49:56;;;;;;;24.13;13.50;;;;;;;;;;5052248;28;20021;-77
2021/01/31 07:52:30;;;;;;;25.50;14.30;;;;;;;;;;5034590;28;20024;-79
2021/01/31 07:55:28;;;;;;;23.67;11.30;;;;;;;;;;5034089;28;20013;-78
2021/01/31 07:58:03;;;;;;;24.10;14.18;;;;;;;;;;5001598;28;20048;-78
2021/01/31 08:00:55;;;;;;;24.98;13.13;;;;;;;;;;5034486;28;20021;-78
2021/01/31 08:03:29;;;;;;;23.23;13.35;;;;;;;;;;5031343;28;20029;-78
2021/01/31 08:05:59;;;;;;;23.45;13.05;;;;;;;;;;5033336;28;20025;-78
2021/01/31 08:08:42;;;;;;;21.55;12.07;;;;;;;;;;5033349;28;20064;-78
2021/01/31 08:11:12;;;;;;;23.63;11.82;;;;;;;;;;5031378;28;20020;-78
2021/01/31 08:13:42;;;;;;;19.98;12.63;;;;;;;;;;5033285;28;20104;-79
2021/01/31 08:16:26;;;;;;;22.63;13.07;;;;;;;;;;5032825;28;20025;-78
2021/01/31 08:19:08;;;;;;;19.67;12.35;;;;;;;;;;5031729;28;20029;-78
2021/01/31 08:21:46;;;;;;;21.05;12.50;;;;;;;;;;5033011;28;20021;-78
2021/01/31 08:24:12;;;;;;;20.73;12.43;;;;;;;;;;5033976;28;20013;-77
2021/01/31 08:26:40;;;;;;;21.42;12.05;;;;;;;;;;5032835;28;20090;-76
2021/01/31 08:29:15;;;;;;;18.33;11.63;;;;;;;;;;5033880;28;20480;-77
2021/01/31 08:32:00;;;;;;;18.65;12.20;;;;;;;;;;5052079;28;20051;-77
2021/01/31 08:34:26;;;;;;;19.65;12.40;;;;;;;;;;5026010;28;20051;-77
2021/01/31 08:36:52;;;;;;;22.02;14.13;;;;;;;;;;5062594;28;20037;-78
2021/01/31 08:39:31;;;;;;;17.77;11.55;;;;;;;;;;5030826;28;20128;-78
2021/01/31 08:42:07;;;;;;;17.58;11.30;;;;;;;;;;5030419;28;20029;-77
2021/01/31 08:44:36;;;;;;;22.10;13.30;;;;;;;;;;5014258;28;20022;-78
2021/01/31 08:47:04;;;;;;;17.75;11.40;;;;;;;;;;5014015;28;20132;-78
2021/01/31 08:49:30;;;;;;;20.17;12.98;;;;;;;;;;5021016;28;20116;-79
2021/01/31 08:51:58;;;;;;;17.50;11.43;;;;;;;;;;5036483;28;20457;-78
2021/01/31 08:54:24;;;;;;;18.38;12.00;;;;;;;;;;5034014;28;20039;-78
2021/01/31 08:56:55;;;;;;;19.02;12.13;;;;;;;;;;5047930;28;20469;-77
2021/01/31 08:59:23;;;;;;;17.67;11.15;;;;;;;;;;5053872;28;20028;-78
2021/01/31 09:01:55;;;;;;;18.40;12.27;;;;;;;;;;5071976;28;20071;-78
2021/01/31 09:04:21;;;;;;;17.05;11.60;;;;;;;;;;5057495;28;20020;-79
2021/01/31 09:06:48;;;;;;;18.20;11.88;;;;;;;;;;5057893;28;20031;-79
2021/01/31 09:09:31;;;;;;;19.45;12.63;;;;;;;;;;5041301;28;20060;-79
2021/01/31 09:11:59;;;;;;;17.65;10.88;;;;;;;;;;5035291;28;20029;-79
2021/01/31 09:14:39;;;;;;;18.85;11.63;;;;;;;;;;5036996;28;20025;-78
2021/01/31 09:17:05;;;;;;;20.10;12.13;;;;;;;;;;5052240;28;20076;-79
2021/01/31 09:19:31;;;;;;;20.58;12.57;;;;;;;;;;5036751;28;20531;-79
2021/01/31 09:22:01;;;;;;;22.10;12.45;;;;;;;;;;5036311;28;20477;-79
2021/01/31 09:24:31;;;;;;;23.00;12.82;;;;;;;;;;5036609;28;20013;-79
2021/01/31 09:26:57;;;;;;;20.35;12.35;;;;;;;;;;5036313;28;20032;-79
2021/01/31 09:29:25;;;;;;;20.00;12.98;;;;;;;;;;5036428;28;20086;-79
2021/01/31 09:31:54;;;;;;;20.20;12.93;;;;;;;;;;5054212;28;20017;-78
2021/01/31 09:34:21;;;;;;;24.52;14.40;;;;;;;;;;5036337;28;20017;-78
2021/01/31 09:37:02;;;;;;;18.58;11.35;;;;;;;;;;5035870;28;20025;-78
2021/01/31 09:39:28;;;;;;;21.88;12.98;;;;;;;;;;5052834;28;20036;-78
2021/01/31 09:41:54;;;;;;;19.83;13.25;;;;;;;;;;5053751;28;20062;-77
2021/01/31 09:44:20;;;;;;;18.45;12.00;;;;;;;;;;5054331;28;20013;-76
2021/01/31 09:46:47;;;;;;;22.77;13.80;;;;;;;;;;5035798;28;20029;-76
2021/01/31 09:49:20;;;;;;;17.73;12.68;;;;;;;;;;5053698;28;20453;-79
2021/01/31 09:51:47;;;;;;;21.10;12.80;;;;;;;;;;5035957;28;20056;-79
2021/01/31 09:54:23;;;;;;;18.58;9.48;;;;;;;;;;5054032;28;20453;-78
2021/01/31 09:56:52;;;;;;;17.15;11.95;;;;;;;;;;5038149;28;20051;-78
2021/01/31 09:59:19;;;;;;;21.02;13.68;;;;;;;;;;5056158;28;20021;-79
2021/01/31 10:01:46;;;;;;;22.23;13.90;;;;;;;;;;5037895;28;20028;-79
2021/01/31 10:04:18;;;;;;;19.98;13.30;;;;;;;;;;5055814;28;20025;-79
2021/01/31 10:06:45;;;;;;;20.25;13.23;;;;;;;;;;5055036;28;20032;-79
2021/01/31 10:09:11;;;;;;;20.35;12.93;;;;;;;;;;5054120;28;20369;-77
2021/01/31 10:11:47;;;;;;;21.25;13.90;;;;;;;;;;5036739;28;20016;-78
2021/01/31 10:14:14;;;;;;;22.58;14.13;;;;;;;;;;5053877;28;20025;-77
2021/01/31 10:16:41;;;;;;;22.73;13.52;;;;;;;;;;5036507;28;20029;-78
2021/01/31 10:19:14;;;;;;;20.88;13.60;;;;;;;;;;5036197;28;20396;-79
2021/01/31 10:21:51;;;;;;;22.23;13.73;;;;;;;;;;5036570;28;20452;-79
2021/01/31 10:24:17;;;;;;;23.17;13.85;;;;;;;;;;5036617;28;20029;-80
2021/01/31 10:26:46;;;;;;;21.77;13.52;;;;;;;;;;5036345;28;20365;-79
2021/01/31 10:29:31;;;;;;;24.27;13.97;;;;;;;;;;5036219;28;20029;-79
2021/01/31 10:32:17;;;;;;;23.05;14.43;;;;;;;;;;5036237;28;20017;-79
2021/01/31 10:34:43;;;;;;;23.13;14.25;;;;;;;;;;5036513;28;20103;-80
2021/01/31 10:37:17;;;;;;;20.80;13.45;;;;;;;;;;5053681;28;20463;-80
2021/01/31 10:39:43;;;;;;;21.23;13.48;;;;;;;;;;5036208;28;20368;-80
2021/01/31 10:42:09;;;;;;;18.85;13.27;;;;;;;;;;5035862;28;20017;-80
2021/01/31 10:44:36;;;;;;;20.65;13.13;;;;;;;;;;5036037;28;20547;-80
2021/01/31 10:47:02;;;;;;;21.63;13.63;;;;;;;;;;5036056;28;20027;-80
2021/01/31 10:49:28;;;;;;;21.25;12.48;;;;;;;;;;5035919;28;20021;-80
2021/01/31 10:51:54;;;;;;;22.08;13.48;;;;;;;;;;5034918;28;20024;-80
2021/01/31 10:54:21;;;;;;;21.40;14.55;;;;;;;;;;5052662;28;20013;-80
2021/01/31 10:56:47;;;;;;;20.48;13.35;;;;;;;;;;5052557;28;20040;-80
2021/01/31 10:59:13;;;;;;;20.20;13.88;;;;;;;;;;5034650;28;20094;-80
2021/01/31 11:01:49;;;;;;;19.98;13.25;;;;;;;;;;5052384;28;20016;-80
2021/01/31 11:04:16;;;;;;;20.08;13.02;;;;;;;;;;5052502;28;20051;-80
2021/01/31 11:06:46;;;;;;;23.88;13.63;;;;;;;;;;5035658;28;20079;-81
2021/01/31 11:09:14;;;;;;;23.90;14.48;;;;;;;;;;5053760;28;20095;-80
2021/01/31 11:11:40;;;;;;;22.05;13.75;;;;;;;;;;5035708;28;20071;-80
2021/01/31 11:14:07;;;;;;;21.50;14.13;;;;;;;;;;5035319;28;20023;-80
2021/01/31 11:16:33;;;;;;;20.10;13.45;;;;;;;;;;5035495;28;20410;-79
2021/01/31 11:18:59;;;;;;;21.30;14.05;;;;;;;;;;5035306;28;20025;-81
2021/01/31 11:21:26;;;;;;;20.65;12.88;;;;;;;;;;5035073;28;20028;-82
2021/01/31 11:23:54;;;;;;;25.60;13.55;;;;;;;;;;5035316;28;20118;-79
2021/01/31 11:26:20;;;;;;;20.73;13.80;;;;;;;;;;5034418;28;20056;-78
2021/01/31 11:28:46;;;;;;;23.35;13.05;;;;;;;;;;5035042;28;20021;-80
2021/01/31 11:31:12;;;;;;;19.70;11.95;;;;;;;;;;5034891;28;20035;-81
2021/01/31 11:33:38;;;;;;;21.08;13.63;;;;;;;;;;5035194;28;20017;-79
2021/01/31 11:36:05;;;;;;;20.73;13.23;;;;;;;;;;5052295;28;20039;-81
2021/01/31 11:38:31;;;;;;;21.38;12.77;;;;;;;;;;5034520;28;20044;-80
2021/01/31 11:40:57;;;;;;;19.85;13.45;;;;;;;;;;5034578;28;20024;-79
2021/01/31 11:43:23;;;;;;;21.58;12.82;;;;;;;;;;5053014;28;20017;-83
2021/01/31 11:47:46;;;;;;;18.33;11.32;;;;;;;;;;5089909;28;20313;-82
2021/01/31 11:50:13;;;;;;;19.00;13.52;;;;;;;;;;5052299;28;20025;-80
2021/01/31 11:52:39;;;;;;;20.10;13.43;;;;;;;;;;5051379;28;20060;-81
2021/01/31 11:55:06;;;;;;;24.17;14.35;;;;;;;;;;5051245;28;20013;-81
2021/01/31 11:57:32;;;;;;;19.27;12.90;;;;;;;;;;5050426;28;20022;-82
2021/01/31 11:59:58;;;;;;;17.48;12.38;;;;;;;;;;5049942;28;20036;-82
2021/01/31 12:02:24;;;;;;;17.48;11.52;;;;;;;;;;5050168;28;20025;-83
2021/01/31 12:04:50;;;;;;;17.58;11.98;;;;;;;;;;5050878;28;20017;-83
2021/01/31 12:07:16;;;;;;;16.50;11.93;;;;;;;;;;5050206;28;20025;-84
2021/01/31 12:09:42;;;;;;;19.75;13.30;;;;;;;;;;5050230;28;20048;-82
2021/01/31 12:12:08;;;;;;;19.63;13.30;;;;;;;;;;5050586;28;20033;-82
2021/01/31 12:14:35;;;;;;;15.82;10.85;;;;;;;;;;5048276;28;20445;-82
2021/01/31 12:17:01;;;;;;;17.63;12.63;;;;;;;;;;5051161;28;20021;-83
2021/01/31 12:19:27;;;;;;;19.00;10.77;;;;;;;;;;5050382;28;20017;-83
2021/01/31 12:21:53;;;;;;;16.25;10.25;;;;;;;;;;5050409;28;20040;-83
2021/01/31 12:24:20;;;;;;;13.80;8.60;;;;;;;;;;5049815;28;20031;-83
2021/01/31 12:26:46;;;;;;;14.88;10.52;;;;;;;;;;5047674;28;20512;-82
2021/01/31 12:29:12;;;;;;;16.48;10.98;;;;;;;;;;5047434;28;20453;-82
2021/01/31 12:31:38;;;;;;;19.95;12.55;;;;;;;;;;5048196;28;20028;-82
2021/01/31 12:34:04;;;;;;;12.85;8.02;;;;;;;;;;5047512;28;20021;-82
2021/01/31 12:36:30;;;;;;;15.27;9.75;;;;;;;;;;5048162;28;20022;-83
2021/01/31 12:38:57;;;;;;;16.42;10.75;;;;;;;;;;5047519;28;20512;-82
2021/01/31 12:41:23;;;;;;;15.80;11.30;;;;;;;;;;5047119;28;20056;-81
2021/01/31 12:43:49;;;;;;;16.73;11.55;;;;;;;;;;5048918;28;20029;-82
2021/01/31 12:46:15;;;;;;;15.40;10.85;;;;;;;;;;5039448;28;20053;-83
2021/01/31 12:48:41;;;;;;;16.88;12.73;;;;;;;;;;5026984;28;20017;-83
2021/01/31 12:51:07;;;;;;;17.13;10.38;;;;;;;;;;5027712;28;20049;-83
2021/01/31 12:53:33;;;;;;;14.45;9.85;;;;;;;;;;5027018;28;20374;-83
2021/01/31 12:55:59;;;;;;;18.38;11.20;;;;;;;;;;5026819;28;20075;-82
2021/01/31 12:58:25;;;;;;;14.93;11.05;;;;;;;;;;5018543;28;20443;-82
2021/01/31 13:00:51;;;;;;;12.70;8.15;;;;;;;;;;5013449;28;20022;-82
2021/01/31 13:03:18;;;;;;;12.35;8.05;;;;;;;;;;5014603;28;20018;-82
2021/01/31 13:05:44;;;;;;;15.77;10.13;;;;;;;;;;5013428;28;20424;-82
2021/01/31 13:08:10;;;;;;;15.52;10.57;;;;;;;;;;5013779;28;20114;-81
2021/01/31 13:10:36;;;;;;;13.95;9.05;;;;;;;;;;5014189;28;20026;-80
2021/01/31 13:13:03;;;;;;;14.38;9.82;;;;;;;;;;5013724;28;20022;-82
2021/01/31 13:15:29;;;;;;;15.48;10.00;;;;;;;;;;5013825;28;20022;-80
2021/01/31 13:17:56;;;;;;;13.20;8.60;;;;;;;;;;5012993;28;20085;-81
2021/01/31 13:20:22;;;;;;;14.93;10.25;;;;;;;;;;5012757;28;20018;-82
2021/01/31 13:22:48;;;;;;;14.77;9.02;;;;;;;;;;5012925;28;20062;-80
2021/01/31 13:25:15;;;;;;;13.05;7.80;;;;;;;;;;5013190;28;20049;-80
2021/01/31 13:27:41;;;;;;;13.52;8.52;;;;;;;;;;5012386;28;20061;-82
2021/01/31 13:30:08;;;;;;;12.75;7.65;;;;;;;;;;5012577;28;20022;-81
2021/01/31 13:32:34;;;;;;;15.57;10.95;;;;;;;;;;5012575;28;20421;-81
2021/01/31 13:35:02;;;;;;;14.95;9.20;;;;;;;;;;5012794;28;20017;-81
2021/01/31 13:37:33;;;;;;;17.17;10.18;;;;;;;;;;5012622;28;20026;-80
2021/01/31 13:39:59;;;;;;;14.82;9.68;;;;;;;;;;5012593;28;20022;-80
2021/01/31 13:42:25;;;;;;;14.73;10.02;;;;;;;;;;5012123;28;20049;-80
2021/01/31 13:44:51;;;;;;;17.35;11.30;;;;;;;;;;5012154;28;20076;-80
2021/01/31 13:47:17;;;;;;;17.90;11.13;;;;;;;;;;5011813;28;20069;-81
2021/01/31 13:49:43;;;;;;;17.70;10.90;;;;;;;;;;5012420;28;20022;-81
2021/01/31 13:52:09;;;;;;;12.75;8.25;;;;;;;;;;5006863;28;20033;-81
2021/01/31 13:54:35;;;;;;;14.77;8.55;;;;;;;;;;5002011;28;20023;-80
2021/01/31 13:57:01;;;;;;;13.88;8.88;;;;;;;;;;5005221;28;20352;-81
2021/01/31 13:59:27;;;;;;;15.77;10.27;;;;;;;;;;5004836;28;20025;-81
2021/01/31 14:01:53;;;;;;;17.17;11.10;;;;;;;;;;5002892;28;20019;-81
2021/01/31 14:04:21;;;;;;;18.48;12.32;;;;;;;;;;5001344;28;20077;-80
2021/01/31 14:06:47;;;;;;;17.63;10.50;;;;;;;;;;5000411;28;20019;-80
2021/01/31 14:09:14;;;;;;;19.80;11.52;;;;;;;;;;5001120;28;20018;-80
2021/01/31 14:11:40;;;;;;;15.18;10.10;;;;;;;;;;5001588;28;20109;-81
2021/01/31 14:14:06;;;;;;;16.33;10.48;;;;;;;;;;5012327;28;20088;-81
2021/01/31 14:16:32;;;;;;;17.95;10.35;;;;;;;;;;5013886;28;20022;-80
2021/01/31 14:18:58;;;;;;;21.48;12.25;;;;;;;;;;5012568;28;20026;-81
2021/01/31 14:21:27;;;;;;;17.08;10.90;;;;;;;;;;5012435;28;20022;-82
2021/01/31 14:23:53;;;;;;;18.50;11.02;;;;;;;;;;5013527;28;20414;-82
2021/01/31 14:26:19;;;;;;;15.10;9.57;;;;;;;;;;5012059;28;20076;-81
2021/01/31 14:28:45;;;;;;;18.90;12.10;;;;;;;;;;5013842;28;20014;-81
2021/01/31 14:31:11;;;;;;;15.57;9.32;;;;;;;;;;5012078;28;20390;-82
2021/01/31 14:33:37;;;;;;;16.42;10.00;;;;;;;;;;5014084;28;20026;-81